Time;durP1;ratioP1;P1;durP2;ratioP2;P2;SDS_P1;SDS_P2;PMS_P1;PMS_P2;Temp;Humidity;BMP_temperature;BMP_pressure;BME280_temperature;BME280_humidity;BME280_pressure;Samples;Min_cycle;Max_cycle;Signal;HPM_P1;HPM_P2
2023/04/23 00:02:12;;;;;;;;;;;;;;;21.52;51.83;100242.56;4903203;29;2966;-68
2023/04/23 00:04:38;;;;;;;;;;;;;;;21.53;51.78;100239.03;4925870;29;3080;-68
2023/04/23 00:07:05;;;;;;;;;;;;;;;21.51;51.80;100241.09;4907961;29;2722;-69
2023/04/23 00:09:32;;;;;;;;;;;;;;;21.50;52.04;100237.47;4921853;29;3135;-69
2023/04/23 00:11:58;;;;;;;;;;;;;;;21.51;51.85;100232.47;4921783;29;2758;-68
2023/04/23 00:14:25;;;;;;;;;;;;;;;21.50;51.91;100231.72;4916809;29;3044;-69
2023/04/23 00:16:51;;;;;;;;;;;;;;;21.50;51.78;100222.34;4924535;29;3118;-69
2023/04/23 00:19:18;;;;;;;;;;;;;;;21.50;51.67;100225.22;4916287;29;2890;-69
2023/04/23 00:21:44;;;;;;;;;;;;;;;21.50;51.77;100223.06;4917658;29;3023;-70
2023/04/23 00:24:11;;;;;;;;;;;;;;;21.51;51.95;100212.31;4918028;29;2723;-70
2023/04/23 00:26:37;;;;;;;;;;;;;;;21.52;52.22;100213.75;4927192;29;2730;-69
2023/04/23 00:29:03;;;;;;;;;;;;;;;21.54;52.28;100210.94;4922427;29;2979;-70
2023/04/23 00:31:30;;;;;;;;;;;;;;;21.55;52.31;100212.41;4923981;29;2690;-69
2023/04/23 00:33:56;;;;;;;;;;;;;;;21.52;52.28;100200.09;4927438;29;2497;-70
2023/04/23 00:36:23;;;;;;;;;;;;;;;21.52;52.27;100208.00;4924972;29;2902;-70
2023/04/23 00:38:49;;;;;;;;;;;;;;;21.52;52.11;100208.00;4906183;29;3096;-69
2023/04/23 00:41:16;;;;;;;;;;;;;;;21.51;52.28;100203.66;4896913;29;2645;-69
2023/04/23 00:43:42;;;;;;;;;;;;;;;21.52;52.03;100208.00;4908183;29;3023;-70
2023/04/23 00:46:09;;;;;;;;;;;;;;;21.50;51.98;100211.53;4908468;29;2988;-69
2023/04/23 00:48:35;;;;;;;;;;;;;;;21.50;52.15;100210.81;4909582;29;2961;-69
2023/04/23 00:51:04;;;;;;;;;;;;;;;21.49;52.25;100209.34;4900715;29;3015;-69
2023/04/23 00:53:31;;;;;;;;;;;;;;;21.49;51.99;100209.34;4905956;29;3016;-70
2023/04/23 00:55:58;;;;;;;;;;;;;;;21.48;52.11;100208.59;4923603;29;2786;-69
2023/04/23 00:58:25;;;;;;;;;;;;;;;21.48;52.16;100207.88;4888444;29;3093;-69
2023/04/23 01:00:51;;;;;;;;;;;;;;;21.48;51.91;100207.88;4925131;28;2723;-70
2023/04/23 01:03:20;;;;;;;;;;;;;;;21.48;51.94;100202.09;4923916;29;3079;-69
2023/04/23 01:05:47;;;;;;;;;;;;;;;21.47;52.15;100200.66;4922202;29;3326;-70
2023/04/23 01:08:14;;;;;;;;;;;;;;;21.48;52.12;100202.09;4918671;29;3000;-69
2023/04/23 01:10:41;;;;;;;;;;;;;;;21.48;52.09;100202.09;4926223;29;2438;-70
2023/04/23 01:13:07;;;;;;;;;;;;;;;21.48;51.91;100202.09;4910889;29;3013;-69
2023/04/23 01:15:34;;;;;;;;;;;;;;;21.48;51.90;100202.09;4887794;29;2914;-70
2023/04/23 01:18:03;;;;;;;;;;;;;;;21.48;51.75;100196.34;4910447;29;3017;-69
2023/04/23 01:20:31;;;;;;;;;;;;;;;21.48;51.92;100202.09;4924428;29;3098;-69
2023/04/23 01:22:57;;;;;;;;;;;;;;;21.48;51.67;100207.88;4904239;29;2846;-70
2023/04/23 01:25:23;;;;;;;;;;;;;;;21.47;51.88;100203.53;4929482;29;2730;-69
2023/04/23 01:27:50;;;;;;;;;;;;;;;21.48;51.71;100202.09;4915787;29;2892;-69
2023/04/23 01:30:16;;;;;;;;;;;;;;;21.47;51.64;100200.66;4906796;29;2920;-69
2023/04/23 01:32:43;;;;;;;;;;;;;;;21.47;51.67;100195.63;4904611;29;2948;-70
2023/04/23 01:35:09;;;;;;;;;;;;;;;21.46;51.64;100202.81;4911438;29;2743;-70
2023/04/23 01:37:35;;;;;;;;;;;;;;;21.47;51.81;100200.66;4924287;29;2660;-69
2023/04/23 01:40:02;;;;;;;;;;;;;;;21.46;51.83;100196.28;4925064;29;3092;-70
2023/04/23 01:42:28;;;;;;;;;;;;;;;21.47;52.05;100200.66;4928427;29;3330;-69
2023/04/23 01:44:55;;;;;;;;;;;;;;;21.48;51.80;100196.34;4927048;29;3087;-70
2023/04/23 01:47:21;;;;;;;;;;;;;;;21.46;51.68;100188.41;4927335;29;2723;-70
2023/04/23 01:49:47;;;;;;;;;;;;;;;21.46;51.93;100187.63;4919693;29;3187;-70
2023/04/23 01:52:14;;;;;;;;;;;;;;;21.46;51.63;100184.75;4909726;29;2942;-70
2023/04/23 01:54:40;;;;;;;;;;;;;;;21.47;51.71;100200.66;4920298;29;2929;-69
2023/04/23 01:57:08;;;;;;;;;;;;;;;21.46;51.84;100193.41;4921643;29;3269;-70
2023/04/23 01:59:35;;;;;;;;;;;;;;;21.46;51.63;100196.28;4906740;29;2716;-71
2023/04/23 02:02:01;;;;;;;;;;;;;;;21.45;51.43;100194.81;4921638;29;2920;-70
2023/04/23 02:04:28;;;;;;;;;;;;;;;21.45;51.94;100194.81;4908573;29;2688;-70
2023/04/23 02:06:54;;;;;;;;;;;;;;;21.45;51.75;100197.69;4891681;29;3069;-69
2023/04/23 02:09:21;;;;;;;;;;;;;;;21.45;51.74;100194.81;4915817;29;3044;-69
2023/04/23 02:11:47;;;;;;;;;;;;;;;21.44;51.85;100196.22;4921544;29;2939;-70
2023/04/23 02:14:14;;;;;;;;;;;;;;;21.44;51.48;100196.22;4925595;29;3093;-69
2023/04/23 02:16:40;;;;;;;;;;;;;;;21.43;51.75;100189.72;4921917;29;2957;-70
2023/04/23 02:19:07;;;;;;;;;;;;;;;21.43;51.67;100189.00;4911947;29;2844;-70
2023/04/23 02:21:33;;;;;;;;;;;;;;;21.42;51.76;100188.25;4929818;29;2715;-70
2023/04/23 02:24:00;;;;;;;;;;;;;;;21.43;51.84;100186.13;4925210;29;3063;-70
2023/04/23 02:26:27;;;;;;;;;;;;;;;21.42;51.70;100182.50;4926696;29;3047;-68
2023/04/23 02:28:54;;;;;;;;;;;;;;;21.43;51.82;100189.00;4922311;29;2763;-67
2023/04/23 02:31:20;;;;;;;;;;;;;;;21.42;51.91;100187.53;4923185;29;2845;-75
2023/04/23 02:33:47;;;;;;;;;;;;;;;21.41;51.88;100181.03;4897745;29;2700;-77
2023/04/23 02:36:13;;;;;;;;;;;;;;;21.43;51.90;100189.00;4924513;29;3018;-75
2023/04/23 02:38:41;;;;;;;;;;;;;;;21.43;51.71;100186.84;4909756;29;2648;-75
2023/04/23 02:41:07;;;;;;;;;;;;;;;21.44;51.61;100190.44;4929593;29;2863;-76
2023/04/23 02:43:34;;;;;;;;;;;;;;;21.42;51.68;100182.50;4923336;29;2932;-76
2023/04/23 02:46:06;;;;;;;;;;;;;;;21.42;51.84;100182.50;4924373;29;3027;-76
2023/04/23 02:48:36;;;;;;;;;;;;;;;21.42;51.74;100182.50;4926498;29;3123;-75
2023/04/23 02:51:03;;;;;;;;;;;;;;;21.42;51.74;100182.50;4923043;29;2734;-76
2023/04/23 02:53:29;;;;;;;;;;;;;;;21.42;51.96;100182.50;4919149;29;3035;-76
2023/04/23 02:55:55;;;;;;;;;;;;;;;21.42;51.85;100181.78;4907750;29;2981;-76
2023/04/23 02:58:22;;;;;;;;;;;;;;;21.41;51.69;100181.03;4909995;29;3011;-75
2023/04/23 03:00:50;;;;;;;;;;;;;;;21.41;51.64;100175.25;4911729;29;2692;-76
2023/04/23 03:03:16;;;;;;;;;;;;;;;21.41;51.70;100174.53;4911589;29;2585;-76
2023/04/23 03:05:43;;;;;;;;;;;;;;;21.41;51.87;100181.03;4927982;29;2691;-75
2023/04/23 03:08:09;;;;;;;;;;;;;;;21.41;51.72;100177.41;4925158;29;2910;-76
2023/04/23 03:10:36;;;;;;;;;;;;;;;21.40;51.87;100176.69;4923806;29;2909;-76
2023/04/23 03:13:03;;;;;;;;;;;;;;;21.40;51.61;100170.91;4907741;29;3049;-75
2023/04/23 03:15:29;;;;;;;;;;;;;;;21.40;51.75;100167.28;4900871;29;3267;-76
2023/04/23 03:17:56;;;;;;;;;;;;;;;21.39;52.01;100162.91;4926475;29;3110;-75
2023/04/23 03:20:23;;;;;;;;;;;;;;;21.40;51.80;100162.28;4907344;29;3109;-75
2023/04/23 03:22:49;;;;;;;;;;;;;;;21.39;51.55;100162.91;4919533;29;3058;-75
2023/04/23 03:25:16;;;;;;;;;;;;;;;21.38;51.88;100165.06;4905986;29;2731;-75
2023/04/23 03:27:43;;;;;;;;;;;;;;;21.39;51.94;100165.78;4904036;29;3284;-76
2023/04/23 03:30:10;;;;;;;;;;;;;;;21.38;51.93;100159.31;4905707;29;2731;-75
2023/04/23 03:32:37;;;;;;;;;;;;;;;21.38;51.73;100159.31;4905153;29;3022;-75
2023/04/23 03:35:03;;;;;;;;;;;;;;;21.38;51.96;100153.53;4894184;29;2995;-75
2023/04/23 03:37:30;;;;;;;;;;;;;;;21.38;51.69;100161.44;4910140;29;3170;-75
2023/04/23 03:39:57;;;;;;;;;;;;;;;21.41;52.06;100163.00;4895708;29;2731;-75
2023/04/23 03:42:23;;;;;;;;;;;;;;;21.40;51.98;100155.75;4882365;29;2728;-75
2023/04/23 03:44:52;;;;;;;;;;;;;;;21.42;51.77;100158.72;4905829;29;2840;-76
2023/04/23 03:47:19;;;;;;;;;;;;;;;21.42;51.71;100164.50;4907527;29;3004;-75
2023/04/23 03:49:45;;;;;;;;;;;;;;;21.42;51.74;100164.50;4902005;29;2722;-75
2023/04/23 03:52:12;;;;;;;;;;;;;;;21.45;51.86;100157.38;4906338;29;2714;-76
2023/04/23 03:54:38;;;;;;;;;;;;;;;21.45;51.85;100160.25;4912095;29;2930;-76
2023/04/23 03:57:12;;;;;;;;;;;;;;;21.43;51.96;100175.31;4909334;29;3056;-75
2023/04/23 03:59:53;;;;;;;;;;;;;;;21.44;51.80;100170.28;4907110;29;2797;-75
2023/04/23 04:02:20;;;;;;;;;;;;;;;21.44;51.57;100161.66;4909204;29;2767;-75
2023/04/23 04:04:50;;;;;;;;;;;;;;;21.43;51.88;100160.19;4898996;29;2752;-75
2023/04/23 04:07:17;;;;;;;;;;;;;;;21.45;51.73;100157.38;4909745;29;3004;-75
2023/04/23 04:09:43;;;;;;;;;;;;;;;21.44;51.71;100156.66;4928498;29;2632;-75
2023/04/23 04:12:11;;;;;;;;;;;;;;;21.44;51.70;100155.88;4910136;29;2830;-75
2023/04/23 04:14:37;;;;;;;;;;;;;;;21.44;51.92;100161.66;4928778;29;2948;-75
2023/04/23 04:17:03;;;;;;;;;;;;;;;21.44;51.69;100164.53;4921101;29;2856;-74
2023/04/23 04:19:30;;;;;;;;;;;;;;;21.43;51.81;100165.94;4920413;29;3064;-75
2023/04/23 04:21:56;;;;;;;;;;;;;;;21.45;51.91;100171.78;4917466;29;2703;-75
2023/04/23 04:24:24;;;;;;;;;;;;;;;21.44;51.84;100161.66;4923963;29;2635;-74
2023/04/23 04:27:04;;;;;;;;;;;;;;;21.43;51.71;100160.19;4917624;29;2994;-75
2023/04/23 04:29:31;;;;;;;;;;;;;;;21.43;51.70;100168.84;4924759;29;2738;-76
2023/04/23 04:31:57;;;;;;;;;;;;;;;21.44;51.69;100164.53;4922976;29;3181;-76
2023/04/23 04:34:23;;;;;;;;;;;;;;;21.42;51.90;100170.25;4919586;29;2818;-77
2023/04/23 04:36:53;;;;;;;;;;;;;;;21.43;51.56;100171.72;4910202;29;2517;-75
2023/04/23 04:39:19;;;;;;;;;;;;;;;21.42;51.66;100170.97;4924674;29;2834;-76
2023/04/23 04:41:46;;;;;;;;;;;;;;;21.43;51.61;100183.22;4920952;29;2716;-76
2023/04/23 04:44:13;;;;;;;;;;;;;;;21.42;51.67;100178.91;4920109;29;2991;-76
2023/04/23 04:46:41;;;;;;;;;;;;;;;21.42;51.55;100170.25;4922572;29;2750;-75
2023/04/23 04:49:08;;;;;;;;;;;;;;;21.41;51.84;100175.25;4911189;29;3002;-75
2023/04/23 04:51:37;;;;;;;;;;;;;;;21.41;51.62;100165.88;4921442;29;3296;-75
2023/04/23 04:54:03;;;;;;;;;;;;;;;21.41;51.68;100168.75;4907480;29;3024;-75
2023/04/23 04:56:30;;;;;;;;;;;;;;;21.41;51.85;100169.50;4913514;29;3135;-76
2023/04/23 04:58:56;;;;;;;;;;;;;;;21.42;51.93;100170.25;4926017;29;2695;-75
2023/04/23 05:01:24;;;;;;;;;;;;;;;21.40;51.88;100161.53;4932377;29;2761;-76
2023/04/23 05:03:50;;;;;;;;;;;;;;;21.41;51.84;100160.13;4921759;29;3130;-74
2023/04/23 05:06:17;;;;;;;;;;;;;;;21.39;51.82;100154.28;4902366;29;2984;-75
2023/04/23 05:08:46;;;;;;;;;;;;;;;21.39;51.81;100157.16;4895925;29;2720;-76
2023/04/23 05:11:14;;;;;;;;;;;;;;;21.39;51.88;100169.41;4918112;29;2815;-73
2023/04/23 05:13:40;;;;;;;;;;;;;;;21.38;51.86;100179.47;4903385;29;2988;-75
2023/04/23 05:16:07;;;;;;;;;;;;;;;21.39;52.05;100183.06;4923610;29;2788;-76
2023/04/23 05:18:33;;;;;;;;;;;;;;;21.38;51.91;100181.63;4919516;29;3080;-75
2023/04/23 05:20:59;;;;;;;;;;;;;;;21.36;52.03;100182.28;4920097;29;3329;-75
2023/04/23 05:23:26;;;;;;;;;;;;;;;21.36;52.19;100178.66;4919562;29;2874;-75
2023/04/23 05:25:55;;;;;;;;;;;;;;;21.37;51.82;100180.13;4920215;29;2839;-75
2023/04/23 05:28:22;;;;;;;;;;;;;;;21.37;51.96;100183.72;4912643;29;2964;-75
2023/04/23 05:30:48;;;;;;;;;;;;;;;21.36;52.07;100167.88;4914673;29;3130;-75
2023/04/23 05:33:15;;;;;;;;;;;;;;;21.37;51.95;100185.88;4922560;29;2940;-75
2023/04/23 05:35:41;;;;;;;;;;;;;;;21.36;51.90;100178.66;4927779;29;3067;-75
2023/04/23 05:38:07;;;;;;;;;;;;;;;21.37;52.25;100180.13;4921486;29;2957;-74
2023/04/23 05:40:34;;;;;;;;;;;;;;;21.36;51.83;100178.66;4891521;29;3072;-75
2023/04/23 05:43:00;;;;;;;;;;;;;;;21.31;51.92;100189.31;4918991;29;2987;-78
2023/04/23 05:45:27;;;;;;;;;;;;;;;21.32;51.92;100187.91;4913976;29;2934;-75
2023/04/23 05:47:53;;;;;;;;;;;;;;;21.33;51.94;100190.13;4921294;29;2733;-75
2023/04/23 05:50:20;;;;;;;;;;;;;;;21.34;51.98;100196.59;4904493;29;2760;-75
2023/04/23 05:52:46;;;;;;;;;;;;;;;21.33;52.38;100192.28;4920505;29;2751;-75
2023/04/23 05:55:14;;;;;;;;;;;;;;;21.33;52.31;100193.00;4924816;29;2800;-74
2023/04/23 05:57:41;;;;;;;;;;;;;;;21.32;52.32;100191.50;4917615;29;2960;-75
2023/04/23 06:00:10;;;;;;;;;;;;;;;21.33;52.05;100198.75;4921343;29;2683;-75
2023/04/23 06:02:40;;;;;;;;;;;;;;;21.33;52.06;100198.75;4922890;29;2695;-75
2023/04/23 06:05:07;;;;;;;;;;;;;;;21.32;52.15;100199.41;4914678;29;3043;-75
2023/04/23 06:07:34;;;;;;;;;;;;;;;21.32;52.29;100197.28;4922775;29;2996;-76
2023/04/23 06:10:02;;;;;;;;;;;;;;;21.31;52.13;100201.56;4924167;29;2612;-75
2023/04/23 06:12:28;;;;;;;;;;;;;;;21.31;52.24;100195.06;4907210;29;2867;-74
2023/04/23 06:14:54;;;;;;;;;;;;;;;21.31;52.06;100195.06;4925695;29;2933;-75
2023/04/23 06:17:21;;;;;;;;;;;;;;;21.31;52.10;100198.69;4921459;29;3120;-77
2023/04/23 06:19:47;;;;;;;;;;;;;;;21.31;52.14;100195.81;4919202;29;2790;-74
2023/04/23 06:22:13;;;;;;;;;;;;;;;21.38;51.80;100198.91;4914753;29;2864;-73
2023/04/23 06:24:40;;;;;;;;;;;;;;;21.41;51.65;100200.44;4921127;29;3008;-83
2023/04/23 06:27:06;;;;;;;;;;;;;;;21.40;51.97;100205.47;4920990;29;3008;-83
2023/04/23 06:29:36;;;;;;;;;;;;;;;21.37;52.33;100208.91;4914860;29;2820;-83
2023/04/23 06:32:04;;;;;;;;;;;;;;;21.36;52.06;100207.47;4911633;29;2667;-83
2023/04/23 06:34:31;;;;;;;;;;;;;;;21.33;52.56;100209.53;4918430;29;2997;-83
2023/04/23 06:36:57;;;;;;;;;;;;;;;21.32;52.56;100214.53;4918658;29;2762;-83
2023/04/23 06:39:23;;;;;;;;;;;;;;;21.31;52.37;100207.34;4920678;29;2897;-83
2023/04/23 06:41:50;;;;;;;;;;;;;;;21.31;52.70;100210.22;4917594;29;2872;-82
2023/04/23 06:44:33;;;;;;;;;;;;;;;21.32;52.45;100219.56;4917735;29;2766;-81
2023/04/23 06:47:01;;;;;;;;;;;;;;;21.30;52.45;100220.28;4908872;29;2905;-82
2023/04/23 06:49:27;;;;;;;;;;;;;;;21.30;52.71;100211.63;4916665;29;2754;-80
2023/04/23 06:51:54;;;;;;;;;;;;;;;21.31;52.43;100212.34;4915824;29;2774;-82
2023/04/23 06:54:23;;;;;;;;;;;;;;;21.31;52.70;100209.47;4914361;29;2759;-82
2023/04/23 06:56:49;;;;;;;;;;;;;;;21.31;52.63;100215.97;4917579;29;2940;-82
2023/04/23 06:59:16;;;;;;;;;;;;;;;21.30;52.47;100216.63;4909684;29;2933;-82
2023/04/23 07:01:46;;;;;;;;;;;;;;;21.30;52.58;100210.88;4924778;29;2624;-83
2023/04/23 07:04:12;;;;;;;;;;;;;;;21.31;52.54;100210.22;4917263;29;3387;-81
2023/04/23 07:06:38;;;;;;;;;;;;;;;21.30;52.75;100211.63;4919025;29;3159;-81
2023/04/23 07:09:05;;;;;;;;;;;;;;;21.30;52.51;100217.38;4919154;29;3020;-82
2023/04/23 07:11:33;;;;;;;;;;;;;;;21.30;52.71;100214.50;4921466;29;2758;-82
2023/04/23 07:14:00;;;;;;;;;;;;;;;21.30;52.47;100210.88;4908431;29;3044;-82
2023/04/23 07:16:28;;;;;;;;;;;;;;;21.29;52.79;100213.03;4925403;29;2945;-83
2023/04/23 07:18:54;;;;;;;;;;;;;;;21.29;52.54;100210.13;4926287;29;2877;-83
2023/04/23 07:21:21;;;;;;;;;;;;;;;21.29;52.67;100215.91;4928231;29;2706;-83
2023/04/23 07:23:47;;;;;;;;;;;;;;;21.29;52.63;100215.91;4921381;29;3068;-83
2023/04/23 07:26:15;;;;;;;;;;;;;;;21.29;52.79;100210.13;4928795;29;2714;-84
2023/04/23 07:28:41;;;;;;;;;;;;;;;21.29;53.01;100215.16;4926341;29;3131;-84
2023/04/23 07:31:08;;;;;;;;;;;;;;;21.29;52.80;100215.91;4917149;29;2967;-81
2023/04/23 07:33:34;;;;;;;;;;;;;;;21.29;52.76;100220.94;4922357;29;2906;-80
2023/04/23 07:36:01;;;;;;;;;;;;;;;21.28;53.83;100222.31;4905026;29;2957;-83
2023/04/23 07:38:27;;;;;;;;;;;;;;;21.28;53.57;100222.31;4917000;29;2964;-83
2023/04/23 07:40:53;;;;;;;;;;;;;;;21.28;53.42;100225.19;4915758;29;2968;-82
2023/04/23 07:43:20;;;;;;;;;;;;;;;21.27;53.38;100224.47;4902831;29;3202;-84
2023/04/23 07:45:46;;;;;;;;;;;;;;;21.28;53.34;100225.19;4919976;29;3041;-83
2023/04/23 07:48:13;;;;;;;;;;;;;;;21.26;53.98;100223.00;4927565;29;3464;-83
2023/04/23 07:50:39;;;;;;;;;;;;;;;21.26;54.35;100228.03;4917236;29;2762;-82
2023/04/23 07:53:05;;;;;;;;;;;;;;;21.27;54.50;100236.00;4900221;29;2959;-84
2023/04/23 07:55:32;;;;;;;;;;;;;;;21.22;54.31;100228.63;4913482;29;3056;-84
2023/04/23 07:57:58;;;;;;;;;;;;;;;21.28;53.89;100231.72;4904000;29;2686;-77
2023/04/23 08:00:25;;;;;;;;;;;;;;;21.27;53.57;100230.22;4917759;29;2708;-74
2023/04/23 08:02:52;;;;;;;;;;;;;;;21.36;53.53;100224.75;4920621;29;3039;-78
2023/04/23 08:05:18;;;;;;;;;;;;;;;21.36;53.78;100224.75;4916304;29;3076;-76
2023/04/23 08:07:45;;;;;;;;;;;;;;;21.36;53.42;100224.75;4921817;29;3031;-77
2023/04/23 08:10:11;;;;;;;;;;;;;;;21.34;54.31;100229.00;4912459;29;3024;-76
2023/04/23 08:12:37;;;;;;;;;;;;;;;21.33;54.27;100229.72;4926035;28;2889;-82
2023/04/23 08:15:04;;;;;;;;;;;;;;;21.33;54.33;100233.31;4923469;29;3088;-81
2023/04/23 08:17:36;;;;;;;;;;;;;;;21.37;54.26;100229.09;4903124;29;3057;-78
2023/04/23 08:20:05;;;;;;;;;;;;;;;21.40;54.88;100236.41;4925568;29;2710;-77
2023/04/23 08:22:32;;;;;;;;;;;;;;;21.38;55.05;100227.69;4931477;29;2882;-77
2023/04/23 08:24:58;;;;;;;;;;;;;;;21.37;55.03;100231.97;4922808;29;2719;-76
2023/04/23 08:27:24;;;;;;;;;;;;;;;21.31;55.47;100236.13;4924164;29;2984;-75
2023/04/23 08:29:51;;;;;;;;;;;;;;;21.36;55.34;100239.16;4934003;29;2734;-75
2023/04/23 08:32:17;;;;;;;;;;;;;;;21.39;55.15;100246.44;4924913;29;3207;-65
2023/04/23 08:34:44;;;;;;;;;;;;;;;21.41;55.16;100237.88;4919700;29;3076;-65
2023/04/23 08:37:10;;;;;;;;;;;;;;;21.42;55.16;100239.38;4928014;29;3123;-65
2023/04/23 08:39:48;;;;;;;;;;;;;;;21.44;55.28;100239.41;4919880;29;2894;-65
2023/04/23 08:42:21;;;;;;;;;;;;;;;21.43;55.35;100247.31;4926804;29;2937;-65
2023/04/23 08:44:47;;;;;;;;;;;;;;;21.44;55.23;100245.94;4905000;29;2604;-65
2023/04/23 08:47:14;;;;;;;;;;;;;;;21.44;55.66;100245.94;4920253;29;3091;-65
2023/04/23 08:49:41;;;;;;;;;;;;;;;21.44;55.41;100253.81;4912664;29;2894;-65
2023/04/23 08:52:16;;;;;;;;;;;;;;;21.43;55.56;100258.13;4924248;29;3030;-65
2023/04/23 08:54:44;;;;;;;;;;;;;;;21.45;55.51;100266.81;4926203;29;2841;-67
2023/04/23 08:57:11;;;;;;;;;;;;;;;21.45;55.41;100261.06;4930030;29;3173;-67
2023/04/23 08:59:37;;;;;;;;;;;;;;;21.46;55.38;100263.28;4922846;29;3106;-67
2023/04/23 09:02:08;;;;;;;;;;;;;;;21.45;55.49;100266.81;4927927;29;2905;-67
2023/04/23 09:04:35;;;;;;;;;;;;;;;21.45;55.60;100266.81;4925498;29;3124;-67
2023/04/23 09:07:02;;;;;;;;;;;;;;;21.45;55.52;100266.81;4926457;29;3450;-67
2023/04/23 09:09:29;;;;;;;;;;;;;;;21.44;55.33;100266.09;4926058;29;3357;-66
2023/04/23 09:11:55;;;;;;;;;;;;;;;21.45;55.66;100272.59;4918919;29;2957;-66
2023/04/23 09:14:25;;;;;;;;;;;;;;;21.36;55.44;100276.59;4916971;29;3136;-65
2023/04/23 09:16:51;;;;;;;;;;;;;;;21.47;55.87;100281.31;4926292;29;3042;-65
2023/04/23 09:19:18;;;;;;;;;;;;;;;21.51;55.68;100281.44;4918053;29;2998;-65
2023/04/23 09:21:44;;;;;;;;;;;;;;;21.51;56.26;100287.19;4924908;29;3052;-65
2023/04/23 09:24:11;;;;;;;;;;;;;;;21.56;56.05;100285.91;4916478;28;3047;-65
2023/04/23 09:26:44;;;;;;;;;;;;;;;21.58;55.85;100285.22;4921526;29;2793;-64
2023/04/23 09:29:16;;;;;;;;;;;;;;;21.60;56.06;100294.69;4923360;29;3119;-65
2023/04/23 09:31:43;;;;;;;;;;;;;;;21.63;56.17;100295.50;4925008;29;3402;-66
2023/04/23 09:34:10;;;;;;;;;;;;;;;21.61;56.45;100296.16;4906431;29;3218;-64
2023/04/23 09:36:36;;;;;;;;;;;;;;;21.62;56.54;100303.38;4927131;29;3171;-65
2023/04/23 09:39:02;;;;;;;;;;;;;;;21.60;56.89;100309.09;4906533;29;2722;-65
2023/04/23 09:41:30;;;;;;;;;;;;;;;21.60;57.93;100311.97;4911895;29;2862;-65
2023/04/23 09:43:56;;;;;;;;;;;;;;;21.60;57.82;100316.97;4919742;29;3193;-71
2023/04/23 09:46:38;;;;;;;;;;;;;;;21.61;57.35;100310.56;4920861;29;3334;-65
2023/04/23 09:49:06;;;;;;;;;;;;;;;21.64;57.31;100299.84;4921355;29;2751;-64
2023/04/23 09:51:39;;;;;;;;;;;;;;;21.56;58.07;100308.22;4923059;29;3326;-64
2023/04/23 09:54:20;;;;;;;;;;;;;;;21.59;58.31;100316.25;4922713;29;2612;-65
2023/04/23 09:56:50;;;;;;;;;;;;;;;21.61;58.10;100310.56;4925725;29;2911;-65
2023/04/23 09:59:19;;;;;;;;;;;;;;;21.64;58.52;100323.63;4922721;29;3047;-65
2023/04/23 10:01:54;;;;;;;;;;;;;;;21.64;58.13;100323.63;4927245;29;3258;-65
2023/04/23 10:04:21;;;;;;;;;;;;;;;21.66;57.94;100325.84;4926430;29;3182;-66
2023/04/23 10:06:58;;;;;;;;;;;;;;;21.64;58.50;100317.84;4926280;29;3222;-66
2023/04/23 10:09:43;;;;;;;;;;;;;;;21.58;59.34;100320.56;4929695;29;3159;-65
2023/04/23 10:12:09;;;;;;;;;;;;;;;21.63;58.28;100319.28;4926939;29;1705;-67
2023/04/23 10:14:58;;;;;;;;;;;;;;;21.62;59.40;100326.44;4906908;29;1734;-65
2023/04/23 10:17:24;;;;;;;;;;;;;;;21.63;58.91;100322.16;4906545;29;3227;-65
2023/04/23 10:19:51;;;;;;;;;;;;;;;21.61;58.71;100319.19;4924566;29;3226;-67
2023/04/23 10:22:17;;;;;;;;;;;;;;;21.68;58.01;100323.75;4923078;29;3325;-66
2023/04/23 10:24:45;;;;;;;;;;;;;;;21.67;58.06;100316.53;4901219;29;3481;-65
2023/04/23 10:27:14;;;;;;;;;;;;;;;21.63;58.57;100319.28;4905089;29;3092;-66
2023/04/23 10:29:58;;;;;;;;;;;;;;;21.65;58.90;100310.69;4909739;29;3056;-66
2023/04/23 10:32:24;;;;;;;;;;;;;;;21.60;58.27;100306.22;4905136;29;3219;-66
2023/04/23 10:34:51;;;;;;;;;;;;;;;21.64;58.76;100311.38;4911331;29;2601;-67
2023/04/23 10:37:20;;;;;;;;;;;;;;;21.71;58.70;100305.13;4909505;29;2893;-66
2023/04/23 10:39:48;;;;;;;;;;;;;;;21.89;58.67;100315.75;4918718;29;3264;-73
2023/04/23 10:42:15;;;;;;;;;;;;;;;21.92;57.71;100317.28;4886147;29;7181;-81
2023/04/23 10:44:42;;;;;;;;;;;;;;;21.78;58.09;100308.19;4907686;29;4353;-74
2023/04/23 10:47:11;;;;;;;;;;;;;;;22.03;58.14;100316.19;4904817;29;6986;-73
2023/04/23 10:49:38;;;;;;;;;;;;;;;22.22;57.64;100319.66;4885883;29;6992;-76
2023/04/23 10:52:08;;;;;;;;;;;;;;;21.99;57.02;100327.63;4885685;29;4772;-75
2023/04/23 10:54:55;;;;;;;;;;;;;;;22.13;57.42;100325.16;4874493;29;4028;-69
2023/04/23 10:57:21;;;;;;;;;;;;;;;22.22;57.12;100331.19;4876613;29;4238;-69
2023/04/23 10:59:51;;;;;;;;;;;;;;;22.20;56.71;100328.25;4869802;29;4727;-68
2023/04/23 11:02:17;;;;;;;;;;;;;;;22.26;56.71;100331.31;4874682;29;4069;-68
2023/04/23 11:04:44;;;;;;;;;;;;;;;22.25;56.53;100324.09;4873879;29;4419;-69
2023/04/23 11:07:11;;;;;;;;;;;;;;;22.25;56.63;100329.88;4878888;29;4423;-67
2023/04/23 11:09:37;;;;;;;;;;;;;;;22.44;56.11;100328.97;4875023;29;4151;-68
2023/04/23 11:12:05;;;;;;;;;;;;;;;22.46;55.85;100328.31;4865477;29;4204;-68
2023/04/23 11:14:51;;;;;;;;;;;;;;;22.47;55.90;100333.41;4876035;29;4197;-68
2023/04/23 11:17:20;;;;;;;;;;;;;;;22.49;55.48;100324.78;4876238;29;4192;-67
2023/04/23 11:20:15;;;;;;;;;;;;;;;22.53;55.15;100324.91;4871455;29;5059;-68
2023/04/23 11:22:41;;;;;;;;;;;;;;;22.50;55.29;100326.28;4867604;29;4330;-69
2023/04/23 11:25:08;;;;;;;;;;;;;;;22.46;54.99;100320.38;4873386;29;4238;-70
2023/04/23 11:27:36;;;;;;;;;;;;;;;22.40;55.82;100323.09;4870121;29;4436;-68
2023/04/23 11:30:04;;;;;;;;;;;;;;;22.32;56.21;100317.09;4878255;29;4125;-71
2023/04/23 11:32:31;;;;;;;;;;;;;;;22.16;55.68;100317.31;4872470;29;4418;-71
2023/04/23 11:34:57;;;;;;;;;;;;;;;22.23;55.12;100315.38;4877861;29;4233;-67
2023/04/23 11:37:24;;;;;;;;;;;;;;;22.21;55.34;100313.16;4889795;29;4075;-67
2023/04/23 11:39:50;;;;;;;;;;;;;;;22.15;55.61;100316.59;4885728;29;4182;-67
2023/04/23 11:42:19;;;;;;;;;;;;;;;22.05;55.88;100307.59;4887582;29;4224;-70
2023/04/23 11:44:46;;;;;;;;;;;;;;;21.68;55.25;100303.59;4886083;29;4228;-70
2023/04/23 11:47:13;;;;;;;;;;;;;;;21.17;52.61;100312.66;4889145;29;4161;-68
2023/04/23 11:49:41;;;;;;;;;;;;;;;21.24;52.25;100303.56;4890537;29;4171;-64
2023/04/23 11:52:08;;;;;;;;;;;;;;;21.20;50.70;100305.56;4894115;29;4920;-63
2023/04/23 11:54:34;;;;;;;;;;;;;;;21.40;50.35;100314.16;4892799;29;4305;-63
2023/04/23 11:57:01;;;;;;;;;;;;;;;21.61;50.22;100313.44;4893136;29;4188;-63
2023/04/23 11:59:28;;;;;;;;;;;;;;;21.74;50.72;100309.56;4885716;29;4144;-63
2023/04/23 12:01:57;;;;;;;;;;;;;;;21.81;51.90;100306.88;4874511;29;4063;-63
2023/04/23 12:04:24;;;;;;;;;;;;;;;21.87;52.05;100309.94;4874525;29;3972;-63
2023/04/23 12:06:51;;;;;;;;;;;;;;;21.89;52.51;100307.09;4894797;29;4136;-63
2023/04/23 12:09:18;;;;;;;;;;;;;;;21.89;52.67;100318.63;4892826;29;4676;-63
2023/04/23 12:11:44;;;;;;;;;;;;;;;21.90;53.13;100317.25;4895705;29;4235;-63
2023/04/23 12:14:11;;;;;;;;;;;;;;;21.92;53.12;100323.06;4884798;29;4175;-63
2023/04/23 12:16:44;;;;;;;;;;;;;;;21.93;53.48;100330.31;4873607;29;5742;-63
2023/04/23 12:19:14;;;;;;;;;;;;;;;21.93;53.58;100330.31;4874215;29;4165;-63
2023/04/23 12:21:53;;;;;;;;;;;;;;;21.94;53.77;100328.88;4878042;29;4169;-63
2023/04/23 12:24:23;;;;;;;;;;;;;;;21.93;53.85;100313.75;4882413;29;4052;-63
2023/04/23 12:26:53;;;;;;;;;;;;;;;21.93;53.56;100325.28;4873065;29;4424;-63
2023/04/23 12:29:20;;;;;;;;;;;;;;;21.94;53.77;100329.63;4878249;29;4232;-63
2023/04/23 12:31:47;;;;;;;;;;;;;;;21.94;53.65;100326.75;4893641;29;4124;-63
2023/04/23 12:34:15;;;;;;;;;;;;;;;21.95;53.81;100321.72;4890183;29;4118;-62
2023/04/23 12:36:45;;;;;;;;;;;;;;;21.95;53.77;100319.56;4895439;29;4181;-62
2023/04/23 12:39:18;;;;;;;;;;;;;;;21.94;53.86;100318.09;4896357;29;4132;-62
2023/04/23 12:41:44;;;;;;;;;;;;;;;21.95;53.76;100313.81;4893578;29;4159;-62
2023/04/23 12:44:10;;;;;;;;;;;;;;;21.95;54.00;100310.19;4896686;29;4257;-62
2023/04/23 12:46:37;;;;;;;;;;;;;;;21.96;53.78;100305.88;4895257;29;4213;-63
2023/04/23 12:49:03;;;;;;;;;;;;;;;21.96;53.72;100311.66;4895120;29;4150;-63
2023/04/23 12:51:30;;;;;;;;;;;;;;;21.95;53.70;100304.44;4894522;29;4203;-63